createdAt,value
2022-12-25T00:04:07.354Z,83.81
2022-12-25T00:12:30.710Z,83.78
2022-12-25T00:21:02.953Z,83.75
2022-12-25T00:29:26.061Z,83.79
2022-12-25T00:37:49.014Z,83.97
2022-12-25T00:46:14.713Z,83.72
2022-12-25T00:54:40.036Z,83.76
2022-12-25T01:03:03.194Z,83.96
2022-12-25T01:11:28.473Z,83.76
2022-12-25T01:19:51.630Z,83.73
2022-12-25T01:28:16.623Z,83.86
2022-12-25T01:36:40.577Z,84.16
2022-12-25T01:45:44.689Z,83.88
2022-12-25T01:54:12.857Z,83.91
2022-12-25T02:02:37.647Z,83.92
2022-12-25T02:11:00.679Z,83.86
2022-12-25T02:19:35.890Z,83.98
2022-12-25T02:28:18.212Z,83.86
2022-12-25T02:36:49.185Z,83.70
2022-12-25T02:45:33.329Z,83.82
2022-12-25T02:54:18.551Z,83.69
2022-12-25T03:03:02.644Z,83.90
2022-12-25T03:11:32.732Z,83.83
2022-12-25T03:20:14.099Z,83.83
2022-12-25T03:28:36.958Z,83.81
2022-12-25T03:37:43.720Z,83.94
2022-12-25T03:46:31.452Z,83.84
2022-12-25T03:55:18.094Z,83.86
2022-12-25T04:04:00.467Z,83.90
2022-12-25T04:12:42.583Z,84.04
2022-12-25T04:21:24.264Z,83.87
2022-12-25T04:30:05.842Z,83.72
2022-12-25T04:38:28.700Z,83.59
2022-12-25T04:46:52.075Z,83.78
2022-12-25T04:55:15.089Z,83.84
2022-12-25T05:03:38.079Z,83.91
2022-12-25T05:12:00.901Z,83.90
2022-12-25T05:20:23.769Z,83.76
2022-12-25T05:28:47.873Z,83.71
2022-12-25T05:37:10.754Z,83.67
2022-12-25T05:45:33.600Z,83.86
2022-12-25T05:53:56.392Z,83.88
2022-12-25T06:02:19.486Z,83.99
2022-12-25T06:10:44.062Z,83.91
2022-12-25T06:19:08.446Z,83.96
2022-12-25T06:27:31.286Z,84.01
2022-12-25T06:35:54.334Z,84.10
2022-12-25T06:44:17.840Z,84.05
2022-12-25T06:52:41.663Z,83.97
2022-12-25T07:01:15.317Z,83.94
2022-12-25T07:09:39.292Z,83.87
2022-12-25T07:18:02.457Z,84.05
2022-12-25T07:26:25.985Z,83.96
2022-12-25T07:34:50.226Z,84.21
2022-12-25T07:43:13.856Z,84.07
2022-12-25T07:51:36.793Z,83.98
2022-12-25T07:59:59.649Z,84.09
2022-12-25T08:08:22.538Z,83.93
2022-12-25T08:16:47.217Z,83.99
2022-12-25T08:25:10.244Z,84.07
2022-12-25T08:33:33.021Z,84.04
2022-12-25T08:41:55.806Z,84.13
2022-12-25T08:50:18.611Z,83.93
2022-12-25T08:58:42.072Z,84.13
2022-12-25T09:07:05.391Z,84.29
2022-12-25T09:15:28.299Z,84.28
2022-12-25T09:23:51.357Z,84.52
2022-12-25T09:32:14.260Z,84.52
2022-12-25T09:40:37.279Z,84.31
2022-12-25T09:49:12.449Z,84.56
2022-12-25T09:57:35.418Z,84.50
2022-12-25T10:06:21.093Z,84.58
2022-12-25T10:15:04.471Z,84.61
2022-12-25T10:23:31.157Z,84.73
2022-12-25T10:31:55.696Z,84.62
2022-12-25T10:40:24.765Z,84.76
2022-12-25T10:48:51.850Z,84.74
2022-12-25T10:57:17.487Z,84.54
2022-12-25T11:05:41.269Z,84.59
2022-12-25T11:14:04.983Z,84.80
2022-12-25T11:22:31.183Z,84.77
2022-12-25T11:31:08.513Z,84.58
2022-12-25T11:39:36.257Z,84.89
2022-12-25T11:48:06.124Z,84.70
2022-12-25T11:56:31.192Z,84.85
2022-12-25T12:05:18.900Z,84.77
2022-12-25T12:13:54.126Z,84.63
2022-12-25T12:22:21.412Z,84.63
2022-12-25T12:30:44.429Z,84.68
2022-12-25T12:39:07.290Z,84.59
2022-12-25T12:47:38.578Z,84.80
2022-12-25T12:56:18.233Z,84.58
2022-12-25T13:04:59.551Z,84.61
2022-12-25T13:13:33.857Z,84.51
2022-12-25T13:22:05.541Z,84.57
2022-12-25T13:30:28.564Z,84.66
2022-12-25T13:38:54.562Z,84.39
2022-12-25T13:47:29.841Z,84.31
2022-12-25T13:55:55.223Z,84.44
2022-12-25T14:04:21.045Z,84.40
2022-12-25T14:12:44.166Z,84.30
2022-12-25T14:21:25.761Z,84.29
2022-12-25T14:29:52.060Z,84.08
2022-12-25T14:38:34.114Z,84.41
2022-12-25T14:47:17.422Z,84.14
2022-12-25T14:55:40.323Z,84.13
2022-12-25T15:04:12.300Z,84.09
2022-12-25T15:12:35.130Z,84.07
2022-12-25T15:20:58.928Z,84.00
2022-12-25T15:29:44.470Z,83.92
2022-12-25T15:38:05.614Z,83.87
2022-12-25T15:46:28.493Z,84.07
2022-12-25T15:54:51.743Z,83.93
2022-12-25T16:03:14.651Z,83.96
2022-12-25T16:11:37.558Z,84.05
2022-12-25T16:20:00.620Z,84.14
2022-12-25T16:28:23.532Z,84.10
2022-12-25T16:36:46.443Z,83.96
2022-12-25T16:45:10.524Z,83.87
2022-12-25T16:53:33.859Z,84.04
2022-12-25T17:01:56.956Z,83.99
2022-12-25T17:10:21.395Z,84.03
2022-12-25T17:18:45.353Z,84.07
2022-12-25T17:27:09.427Z,84.05
2022-12-25T17:35:35.587Z,84.26
2022-12-25T17:43:58.881Z,83.94
2022-12-25T17:52:21.719Z,83.87
2022-12-25T18:00:44.485Z,84.12
2022-12-25T18:09:07.611Z,84.04
2022-12-25T18:17:30.488Z,83.88
2022-12-25T18:25:53.428Z,83.85
2022-12-25T18:34:16.959Z,84.17
2022-12-25T18:42:41.778Z,84.15
2022-12-25T18:51:11.144Z,83.96
2022-12-25T18:59:33.922Z,83.98
2022-12-25T19:07:57.115Z,83.97
2022-12-25T19:16:19.936Z,83.90
2022-12-25T19:24:42.948Z,83.93
2022-12-25T19:33:07.390Z,83.92
2022-12-25T19:41:31.991Z,83.87
2022-12-25T19:49:59.596Z,83.85
2022-12-25T19:58:25.157Z,84.05
2022-12-25T20:06:48.104Z,84.00
2022-12-25T20:15:11.376Z,84.05
2022-12-25T20:23:34.309Z,83.92
2022-12-25T20:31:57.109Z,83.96
2022-12-25T20:40:20.136Z,84.00
2022-12-25T20:48:43.027Z,84.09
2022-12-25T20:57:06.254Z,83.93
2022-12-25T21:05:29.151Z,83.87
2022-12-25T21:13:53.319Z,84.00
2022-12-25T21:22:16.142Z,83.97
2022-12-25T21:30:39.052Z,83.84
2022-12-25T21:39:07.184Z,83.70
2022-12-25T21:48:00.419Z,84.04
2022-12-25T21:56:14.101Z,84.03
2022-12-25T22:04:38.061Z,83.94
2022-12-25T22:13:20.266Z,83.83
2022-12-25T22:21:43.317Z,83.88
2022-12-25T22:30:09.235Z,83.90
2022-12-25T22:38:33.560Z,83.78
2022-12-25T22:46:57.663Z,83.89
2022-12-25T22:55:20.656Z,84.00
2022-12-25T23:03:43.553Z,84.29
2022-12-25T23:12:06.565Z,84.22
2022-12-25T23:20:48.169Z,83.96
2022-12-25T23:29:30.191Z,83.94
2022-12-25T23:37:54.450Z,83.99
2022-12-25T23:46:17.519Z,84.16
2022-12-25T23:54:40.331Z,84.05
